Browns Point, Washington
Current Conditions -  °F | °C
As of 8:53 PM on Tuesday 25 Nov 2014 (Local Time) from KTIW Reporting Station
Overcast Overcast  
Wind Chill: 56°   Ceiling: 4500
Heat Index: 56°   Visibility: 10mi
Dew Point: 52°   Wind: 15mph
Humidity: 87%   Direction: 190°S
Pressure: 30.18"   Gusts: 26mph
Location:  47.2894°N, 122.391°W
Report Text: KTIW 260453Z AUTO 19013G23KT 10SM SCT033 BKN045 OVC060 13/11 A3018 RMK AO2 RAE15 SLP219 P0000 T01330111
Loading
Personal Weather Stations






























Interactive Weather Map New forecast layout! Learn more

10-Day Weather Forecast

Advertisements
Track Severe Weather on mobile